createdAt,value
2019-04-14T00:02:25.055Z,10.20
2019-04-14T00:07:27.688Z,10.40
2019-04-14T00:12:30.192Z,10.40
2019-04-14T00:17:39.170Z,10.80
2019-04-14T00:22:40.899Z,10.60
2019-04-14T00:27:43.470Z,10.60
2019-04-14T00:32:50.898Z,10.60
2019-04-14T00:37:59.471Z,10.50
2019-04-14T00:43:06.967Z,10.20
2019-04-14T00:48:16.156Z,10.20
2019-04-14T00:53:16.329Z,10.60
2019-04-14T00:58:19.199Z,10.60
2019-04-14T01:03:21.951Z,10.30
2019-04-14T01:08:24.838Z,10.10
2019-04-14T01:13:26.767Z,10.00
2019-04-14T01:18:29.837Z,10.00
2019-04-14T01:23:32.617Z,10.40
2019-04-14T01:28:35.357Z,10.20
2019-04-14T01:33:37.858Z,10.30
2019-04-14T01:38:40.605Z,10.20
2019-04-14T01:43:42.817Z,10.30
2019-04-14T01:48:45.397Z,10.50
2019-04-14T01:53:58.029Z,10.20
2019-04-14T01:59:02.138Z,10.10
2019-04-14T02:04:04.963Z,9.70
2019-04-14T02:09:07.924Z,9.70
2019-04-14T02:14:10.543Z,9.30
2019-04-14T02:19:13.260Z,9.30
2019-04-14T02:24:15.836Z,9.50
2019-04-14T02:29:19.013Z,9.60
2019-04-14T02:34:48.086Z,9.70
2019-04-14T02:39:54.451Z,9.50
2019-04-14T02:44:53.576Z,9.60
2019-04-14T02:49:56.581Z,9.60
2019-04-14T02:54:59.469Z,9.60
2019-04-14T03:00:07.780Z,9.70
2019-04-14T03:10:01.110Z,9.70
2019-04-14T03:15:08.126Z,9.70
2019-04-14T03:20:20.547Z,9.80
2019-04-14T03:25:22.595Z,9.70
2019-04-14T03:31:03.937Z,9.70
2019-04-14T03:36:26.323Z,9.70
2019-04-14T03:40:54.230Z,9.70
2019-04-14T03:50:55.933Z,9.70
2019-04-14T03:56:35.664Z,9.70
2019-04-14T04:01:39.103Z,9.60
2019-04-14T04:06:42.067Z,9.50
2019-04-14T04:11:43.527Z,9.50
2019-04-14T04:17:10.108Z,9.40
2019-04-14T04:22:23.668Z,9.20
2019-04-14T04:27:39.713Z,8.80
2019-04-14T04:32:55.820Z,8.60
2019-04-14T04:38:03.082Z,8.30
2019-04-14T04:43:05.855Z,8.40
2019-04-14T04:48:08.909Z,8.70
2019-04-14T04:53:11.530Z,8.60
2019-04-14T04:58:13.619Z,8.80
2019-04-14T05:03:16.860Z,9.00
2019-04-14T05:08:19.520Z,9.00
2019-04-14T05:13:27.045Z,8.80
2019-04-14T05:18:29.262Z,8.90
2019-04-14T05:23:32.151Z,9.00
2019-04-14T05:28:35.294Z,9.10
2019-04-14T05:33:38.214Z,9.20
2019-04-14T05:38:40.814Z,9.10
2019-04-14T05:43:48.952Z,9.00
2019-04-14T05:48:45.134Z,9.00
2019-04-14T05:53:48.084Z,9.20
2019-04-14T05:58:51.479Z,9.00
2019-04-14T06:03:53.939Z,8.70
2019-04-14T06:08:55.830Z,8.90
2019-04-14T06:13:58.474Z,8.60
2019-04-14T06:19:01.116Z,8.20
2019-04-14T06:24:03.788Z,7.70
2019-04-14T06:29:06.383Z,8.00
2019-04-14T06:34:14.273Z,8.00
2019-04-14T06:39:26.943Z,8.60
2019-04-14T06:44:29.670Z,8.90
2019-04-14T06:49:32.310Z,8.70
2019-04-14T06:54:34.919Z,8.30
2019-04-14T06:59:37.712Z,8.40
2019-04-14T07:04:40.342Z,8.70
2019-04-14T07:09:42.963Z,9.00
2019-04-14T07:14:45.576Z,9.30
2019-04-14T07:20:00.833Z,8.80
2019-04-14T07:24:51.168Z,8.80
2019-04-14T07:29:58.326Z,9.10
2019-04-14T07:35:06.575Z,9.40
2019-04-14T07:41:13.859Z,9.30
2019-04-14T07:47:23.206Z,9.90
2019-04-14T07:52:30.615Z,9.80
2019-04-14T07:57:57.952Z,10.00
2019-04-14T08:03:06.461Z,9.90
2019-04-14T08:08:10.416Z,10.30
2019-04-14T08:13:13.164Z,10.20
2019-04-14T08:18:16.100Z,10.70
2019-04-14T08:23:19.177Z,11.20
2019-04-14T08:28:21.923Z,11.80
2019-04-14T08:33:24.595Z,12.10
2019-04-14T08:38:27.300Z,12.60
2019-04-14T08:43:36.492Z,12.00
2019-04-14T08:49:04.918Z,12.40
2019-04-14T08:54:14.044Z,12.60
2019-04-14T08:59:26.266Z,12.50
2019-04-14T09:04:37.513Z,12.70
2019-04-14T09:09:42.636Z,13.40
2019-04-14T09:14:56.384Z,13.70
2019-04-14T09:19:48.027Z,14.10
2019-04-14T09:24:50.658Z,14.20
2019-04-14T09:29:53.296Z,14.10
2019-04-14T09:34:55.998Z,14.40
2019-04-14T09:39:58.668Z,13.50
2019-04-14T09:45:01.333Z,12.80
2019-04-14T09:50:04.539Z,12.90
2019-04-14T09:55:07.260Z,13.80
2019-04-14T10:00:10.048Z,13.70
2019-04-14T10:05:12.763Z,14.40
2019-04-14T10:10:15.474Z,14.40
2019-04-14T10:15:18.168Z,14.30
2019-04-14T10:20:20.850Z,14.30
2019-04-14T10:25:23.552Z,13.70
2019-04-14T10:30:26.242Z,14.30
2019-04-14T10:35:28.839Z,14.90
2019-04-14T10:40:31.537Z,14.50
2019-04-14T10:45:34.275Z,14.60
2019-04-14T10:50:36.954Z,14.90
2019-04-14T10:55:40.323Z,15.30
2019-04-14T11:00:43.161Z,15.40
2019-04-14T11:05:50.047Z,16.00
2019-04-14T11:10:52.678Z,16.20
2019-04-14T11:15:55.499Z,16.20
2019-04-14T11:20:58.122Z,15.70
2019-04-14T11:26:00.740Z,15.80
2019-04-14T11:31:03.527Z,16.30
2019-04-14T11:36:10.718Z,15.90
2019-04-14T11:41:16.938Z,17.30
2019-04-14T11:46:19.570Z,18.50
2019-04-14T11:51:22.201Z,18.80
2019-04-14T11:56:24.958Z,18.20
2019-04-14T12:01:48.191Z,18.20
2019-04-14T12:06:56.421Z,18.20
2019-04-14T12:11:59.219Z,17.00
2019-04-14T12:17:01.998Z,18.10
2019-04-14T12:22:08.412Z,17.70
2019-04-14T12:27:07.447Z,17.10
2019-04-14T12:32:10.738Z,17.60
2019-04-14T12:37:12.932Z,18.30
2019-04-14T12:42:53.642Z,17.10
2019-04-14T12:48:01.824Z,17.40
2019-04-14T12:53:04.664Z,17.80
2019-04-14T12:58:07.613Z,17.40
2019-04-14T13:03:10.362Z,17.00
2019-04-14T13:08:13.157Z,17.20
2019-04-14T13:13:16.638Z,17.90
2019-04-14T13:18:19.298Z,17.50
2019-04-14T13:23:21.949Z,17.40
2019-04-14T13:28:25.794Z,16.30
2019-04-14T13:33:28.389Z,16.20
2019-04-14T13:38:31.004Z,16.30
2019-04-14T13:43:33.615Z,16.20
2019-04-14T13:48:36.346Z,16.10
2019-04-14T13:53:39.036Z,16.80
2019-04-14T13:58:42.222Z,17.00
2019-04-14T14:03:45.010Z,16.30
2019-04-14T14:08:47.616Z,16.50
2019-04-14T14:13:55.766Z,16.60
2019-04-14T14:19:02.789Z,16.10
2019-04-14T14:24:09.988Z,16.10
2019-04-14T14:29:13.726Z,15.70
2019-04-14T14:34:16.286Z,15.00
2019-04-14T14:39:20.318Z,14.70
2019-04-14T14:44:23.320Z,14.70
2019-04-14T14:50:06.083Z,14.70
2019-04-14T14:55:08.860Z,14.90
2019-04-14T15:00:16.138Z,15.30
2019-04-14T15:05:18.748Z,15.20
2019-04-14T15:10:21.473Z,15.50
2019-04-14T15:15:24.136Z,15.00
2019-04-14T15:20:27.226Z,14.90
2019-04-14T15:25:29.805Z,15.20
2019-04-14T15:30:32.594Z,14.80
2019-04-14T15:35:35.263Z,14.70
2019-04-14T15:40:37.826Z,14.60
2019-04-14T15:45:40.573Z,14.30
2019-04-14T15:50:43.571Z,14.40
2019-04-14T15:55:46.168Z,14.80
2019-04-14T16:00:58.314Z,14.80
2019-04-14T16:06:05.749Z,14.10
2019-04-14T16:11:18.040Z,14.20
2019-04-14T16:18:29.284Z,14.60
2019-04-14T16:23:32.463Z,14.80
2019-04-14T16:28:40.952Z,14.20
2019-04-14T16:33:49.901Z,14.50
2019-04-14T16:38:52.774Z,14.60
2019-04-14T16:43:55.406Z,14.90
2019-04-14T16:48:58.038Z,14.70
2019-04-14T16:54:04.670Z,14.20
2019-04-14T16:59:11.984Z,14.00
2019-04-14T17:04:14.608Z,14.20
2019-04-14T17:09:17.170Z,13.90
2019-04-14T17:14:31.320Z,13.80
2019-04-14T17:19:45.542Z,13.80
2019-04-14T17:25:52.927Z,13.90
2019-04-14T17:31:01.304Z,13.90
2019-04-14T17:36:08.526Z,13.80
2019-04-14T17:41:22.640Z,13.70
2019-04-14T17:46:29.828Z,13.50
2019-04-14T17:51:37.202Z,13.20
2019-04-14T17:56:55.831Z,13.50
2019-04-14T18:02:04.382Z,13.50
2019-04-14T18:07:12.469Z,13.30
2019-04-14T18:12:20.639Z,13.30
2019-04-14T18:17:28.311Z,13.30
2019-04-14T18:22:30.988Z,13.40
2019-04-14T18:27:37.030Z,13.70
2019-04-14T18:32:44.399Z,13.50
2019-04-14T18:37:58.785Z,13.70
2019-04-14T18:43:10.093Z,13.40
2019-04-14T18:48:23.165Z,13.50
2019-04-14T18:53:31.205Z,13.60
2019-04-14T18:58:40.425Z,13.50
2019-04-14T19:03:43.135Z,13.40
2019-04-14T19:08:45.882Z,13.70
2019-04-14T19:13:49.013Z,13.10
2019-04-14T19:18:55.022Z,13.20
2019-04-14T19:23:57.812Z,13.20
2019-04-14T19:29:00.405Z,13.70
2019-04-14T19:34:02.976Z,14.00
2019-04-14T19:39:09.142Z,14.00
2019-04-14T19:44:11.764Z,14.00
2019-04-14T19:49:14.387Z,14.00
2019-04-14T19:54:16.988Z,13.90
2019-04-14T19:59:19.774Z,14.00
2019-04-14T20:04:22.400Z,14.00
2019-04-14T20:09:25.152Z,13.20
2019-04-14T20:14:27.806Z,12.80
2019-04-14T20:19:41.029Z,12.80
2019-04-14T20:24:51.012Z,13.00
2019-04-14T20:29:55.333Z,12.80
2019-04-14T20:34:57.941Z,12.80
2019-04-14T20:40:00.585Z,13.00
2019-04-14T20:45:03.689Z,12.90
2019-04-14T20:50:06.338Z,12.70
2019-04-14T20:55:09.042Z,12.50
2019-04-14T21:00:11.833Z,12.40
2019-04-14T21:05:20.018Z,12.00
2019-04-14T21:10:27.968Z,12.10
2019-04-14T21:15:37.098Z,12.30
2019-04-14T21:20:45.063Z,12.40
2019-04-14T21:26:09.544Z,12.40
2019-04-14T21:31:17.811Z,12.50
2019-04-14T21:36:25.113Z,12.40
2019-04-14T21:41:29.116Z,12.30
2019-04-14T21:46:31.723Z,12.40
2019-04-14T21:51:39.932Z,12.60
2019-04-14T21:56:42.732Z,12.50
2019-04-14T22:02:50.951Z,12.20
2019-04-14T22:08:01.122Z,12.00
2019-04-14T22:13:03.806Z,12.10
2019-04-14T22:18:06.433Z,12.00
2019-04-14T22:23:10.098Z,12.00
2019-04-14T22:28:12.710Z,12.00
2019-04-14T22:33:15.322Z,12.00
2019-04-14T22:38:17.905Z,12.10
2019-04-14T22:43:20.476Z,12.10
2019-04-14T22:48:23.132Z,12.30
2019-04-14T22:53:25.707Z,12.30
2019-04-14T22:58:28.334Z,12.30
2019-04-14T23:03:36.646Z,12.20
2019-04-14T23:08:44.028Z,12.30
2019-04-14T23:13:55.370Z,12.40
2019-04-14T23:19:06.111Z,12.20
2019-04-14T23:24:13.642Z,12.20
2019-04-14T23:29:16.222Z,12.30
2019-04-14T23:34:18.835Z,12.40
2019-04-14T23:39:21.415Z,12.40
2019-04-14T23:44:23.946Z,12.20
2019-04-14T23:49:26.496Z,12.20
2019-04-14T23:54:29.098Z,12.10
2019-04-14T23:59:31.672Z,12.00
